createdAt,value
2019-02-14T00:01:19.619Z,12.90
2019-02-14T00:04:21.536Z,14.80
2019-02-14T00:07:23.498Z,16.20
2019-02-14T00:10:25.461Z,14.97
2019-02-14T00:13:27.388Z,15.13
2019-02-14T00:16:29.259Z,14.83
2019-02-14T00:19:31.262Z,15.57
2019-02-14T00:22:33.194Z,19.40
2019-02-14T00:25:35.078Z,15.63
2019-02-14T00:28:37.301Z,17.43
2019-02-14T00:31:39.213Z,21.17
2019-02-14T00:34:41.088Z,19.73
2019-02-14T00:37:42.989Z,20.13
2019-02-14T00:40:44.912Z,20.90
2019-02-14T00:43:46.847Z,19.50
2019-02-14T00:46:48.789Z,22.13
2019-02-14T00:49:50.709Z,18.07
2019-02-14T00:52:52.686Z,20.97
2019-02-14T00:55:54.614Z,22.50
2019-02-14T00:58:56.587Z,26.43
2019-02-14T01:01:59.861Z,21.37
2019-02-14T01:05:01.791Z,18.43
2019-02-14T01:08:03.908Z,21.10
2019-02-14T01:11:05.792Z,23.87
2019-02-14T01:14:07.746Z,22.67
2019-02-14T01:17:09.606Z,19.63
2019-02-14T01:20:11.711Z,15.80
2019-02-14T01:23:13.613Z,20.00
2019-02-14T01:26:16.159Z,21.87
2019-02-14T01:29:18.203Z,17.93
2019-02-14T01:32:20.295Z,18.00
2019-02-14T01:35:22.180Z,18.43
2019-02-14T01:38:24.137Z,21.97
2019-02-14T01:41:26.102Z,22.20
2019-02-14T01:44:28.056Z,15.70
2019-02-14T01:47:29.925Z,18.30
2019-02-14T01:50:31.871Z,21.10
2019-02-14T01:53:33.818Z,18.83
2019-02-14T01:56:35.725Z,21.17
2019-02-14T01:59:37.740Z,18.50
2019-02-14T02:02:39.627Z,18.97
2019-02-14T02:05:41.496Z,20.90
2019-02-14T02:08:43.404Z,18.53
2019-02-14T02:11:45.311Z,17.20
2019-02-14T02:14:47.281Z,16.60
2019-02-14T02:17:49.149Z,20.80
2019-02-14T02:20:51.054Z,21.13
2019-02-14T02:23:52.982Z,20.27
2019-02-14T02:26:56.874Z,18.53
2019-02-14T02:29:58.934Z,20.57
2019-02-14T02:33:00.855Z,18.33
2019-02-14T02:36:02.786Z,18.27
2019-02-14T02:39:06.643Z,19.30
2019-02-14T02:42:08.565Z,18.27
2019-02-14T02:45:11.418Z,19.10
2019-02-14T02:48:13.364Z,19.33
2019-02-14T02:51:15.218Z,19.70
2019-02-14T02:54:17.080Z,19.00
2019-02-14T02:57:20.185Z,18.80
2019-02-14T03:00:22.386Z,20.07
2019-02-14T03:03:24.288Z,18.93
2019-02-14T03:06:26.248Z,20.30
2019-02-14T03:09:28.123Z,20.07
2019-02-14T03:12:30.067Z,21.00
2019-02-14T03:15:32.033Z,20.97
2019-02-14T03:18:33.905Z,21.27
2019-02-14T03:21:35.892Z,23.03
2019-02-14T03:24:37.760Z,22.53
2019-02-14T03:27:40.326Z,21.97
2019-02-14T03:30:42.371Z,24.23
2019-02-14T03:33:44.310Z,22.70
2019-02-14T03:36:46.164Z,22.37
2019-02-14T03:39:48.047Z,22.60
2019-02-14T03:42:51.725Z,22.53
2019-02-14T03:45:53.618Z,23.83
2019-02-14T03:48:55.504Z,23.57
2019-02-14T03:51:57.351Z,22.30
2019-02-14T03:54:59.421Z,22.63
2019-02-14T03:58:01.320Z,21.80
2019-02-14T04:01:03.301Z,23.93
2019-02-14T04:04:05.177Z,22.60
2019-02-14T04:07:07.261Z,21.63
2019-02-14T04:10:13.102Z,24.60
2019-02-14T04:13:14.998Z,22.33
2019-02-14T04:16:16.968Z,23.23
2019-02-14T04:19:18.874Z,22.60
2019-02-14T04:22:20.856Z,21.97
2019-02-14T04:25:22.745Z,22.00
2019-02-14T04:28:24.705Z,22.80
2019-02-14T04:31:26.729Z,20.20
2019-02-14T04:34:28.626Z,20.50
2019-02-14T04:37:30.536Z,20.07
2019-02-14T04:40:33.801Z,20.03
2019-02-14T04:43:35.940Z,20.17
2019-02-14T04:46:37.941Z,19.37
2019-02-14T04:49:39.875Z,21.57
2019-02-14T04:52:42.302Z,20.77
2019-02-14T04:55:44.233Z,22.00
2019-02-14T04:58:46.214Z,21.43
2019-02-14T05:01:48.174Z,21.43
2019-02-14T05:04:50.140Z,21.17
2019-02-14T05:07:52.038Z,20.33
2019-02-14T05:10:53.967Z,21.03
2019-02-14T05:13:55.911Z,20.40
2019-02-14T05:16:57.826Z,20.40
2019-02-14T05:19:59.733Z,19.50
2019-02-14T05:23:01.657Z,19.57
2019-02-14T05:26:03.551Z,18.67
2019-02-14T05:29:05.459Z,19.47
2019-02-14T05:32:07.508Z,20.60
2019-02-14T05:35:09.501Z,20.53
2019-02-14T05:38:11.411Z,19.57
2019-02-14T05:41:13.335Z,19.73
2019-02-14T05:44:15.273Z,19.07
2019-02-14T05:47:17.184Z,20.63
2019-02-14T05:50:19.058Z,20.30
2019-02-14T05:53:21.412Z,20.00
2019-02-14T05:56:23.756Z,20.20
2019-02-14T05:59:25.682Z,21.23
2019-02-14T06:02:27.737Z,22.17
2019-02-14T06:05:29.664Z,22.70
2019-02-14T06:08:33.177Z,20.40
2019-02-14T06:11:35.246Z,22.57
2019-02-14T06:14:37.255Z,21.90
2019-02-14T06:17:39.163Z,21.07
2019-02-14T06:20:41.086Z,24.67
2019-02-14T06:23:43.009Z,22.40
2019-02-14T06:26:44.945Z,23.10
2019-02-14T06:29:46.840Z,22.13
2019-02-14T06:32:48.940Z,22.97
2019-02-14T06:35:50.879Z,21.00
2019-02-14T06:38:52.794Z,23.57
2019-02-14T06:41:54.728Z,25.47
2019-02-14T06:44:56.668Z,22.30
2019-02-14T06:47:58.695Z,25.00
2019-02-14T06:51:00.553Z,23.40
2019-02-14T06:54:02.474Z,24.80
2019-02-14T06:57:05.393Z,24.77
2019-02-14T07:00:11.041Z,24.80
2019-02-14T07:03:13.024Z,26.27
2019-02-14T07:06:14.953Z,25.73
2019-02-14T07:09:16.913Z,25.60
2019-02-14T07:12:18.917Z,24.97
2019-02-14T07:15:20.783Z,28.80
2019-02-14T07:18:22.709Z,26.77
2019-02-14T07:21:24.684Z,31.10
2019-02-14T07:24:26.636Z,26.40
2019-02-14T07:27:28.537Z,26.73
2019-02-14T07:30:30.471Z,28.67
2019-02-14T07:33:32.619Z,26.33
2019-02-14T07:36:34.491Z,25.30
2019-02-14T07:39:37.387Z,24.87
2019-02-14T07:42:39.297Z,23.03
2019-02-14T07:45:41.385Z,24.30
2019-02-14T07:48:43.385Z,23.03
2019-02-14T07:51:45.429Z,22.33
2019-02-14T07:54:47.399Z,23.40
2019-02-14T07:57:49.348Z,21.80
2019-02-14T08:00:51.225Z,21.40
2019-02-14T08:03:53.235Z,20.83
2019-02-14T08:06:55.186Z,23.20
2019-02-14T08:09:57.172Z,35.60
2019-02-14T08:12:59.145Z,30.07
2019-02-14T08:16:01.106Z,24.23
2019-02-14T08:19:02.978Z,21.83
2019-02-14T08:22:04.942Z,20.17
2019-02-14T08:25:09.133Z,20.60
2019-02-14T08:28:11.067Z,19.03
2019-02-14T08:31:12.987Z,20.70
2019-02-14T08:34:15.127Z,18.00
2019-02-14T08:37:18.266Z,18.23
2019-02-14T08:40:25.087Z,18.30
2019-02-14T08:43:26.951Z,15.90
2019-02-14T08:46:28.898Z,20.50
2019-02-14T08:49:30.777Z,18.40
2019-02-14T08:52:32.690Z,17.53
2019-02-14T08:55:34.618Z,19.73
2019-02-14T08:58:36.554Z,18.17
2019-02-14T09:01:38.588Z,16.63
2019-02-14T09:04:40.564Z,18.77
2019-02-14T09:07:42.502Z,16.87
2019-02-14T09:10:44.441Z,18.67
2019-02-14T09:13:46.395Z,18.60
2019-02-14T09:16:48.315Z,20.80
2019-02-14T09:19:50.263Z,19.00
2019-02-14T09:22:52.698Z,18.93
2019-02-14T09:25:54.680Z,20.23
2019-02-14T09:28:56.610Z,21.50
2019-02-14T09:31:58.520Z,21.03
2019-02-14T09:35:00.559Z,20.27
2019-02-14T09:38:03.678Z,20.77
2019-02-14T09:41:05.959Z,19.80
2019-02-14T09:44:07.958Z,18.70
2019-02-14T09:47:09.844Z,19.80
2019-02-14T09:50:13.280Z,20.00
2019-02-14T09:53:15.177Z,18.87
2019-02-14T09:56:17.110Z,19.00
2019-02-14T09:59:19.000Z,20.27
2019-02-14T10:02:20.979Z,19.10
2019-02-14T10:05:22.992Z,19.27
2019-02-14T10:08:24.988Z,20.00
2019-02-14T10:11:26.992Z,19.87
2019-02-14T10:14:28.973Z,20.40
2019-02-14T10:17:30.878Z,18.90
2019-02-14T10:20:32.861Z,17.57
2019-02-14T10:23:34.797Z,18.83
2019-02-14T10:26:36.693Z,19.50
2019-02-14T10:29:38.708Z,18.47
2019-02-14T10:32:40.645Z,16.43
2019-02-14T10:35:42.885Z,18.80
2019-02-14T10:38:44.855Z,19.07
2019-02-14T10:41:46.749Z,19.63
2019-02-14T10:44:48.691Z,18.73
2019-02-14T10:47:50.555Z,18.17
2019-02-14T10:50:52.554Z,19.13
2019-02-14T10:53:54.552Z,19.90
2019-02-14T10:56:56.501Z,19.77
2019-02-14T10:59:58.601Z,18.57
2019-02-14T11:03:00.452Z,21.17
2019-02-14T11:06:02.430Z,19.03
2019-02-14T11:09:05.057Z,18.20
2019-02-14T11:12:06.940Z,19.20
2019-02-14T11:15:14.997Z,19.40
2019-02-14T11:18:16.951Z,21.67
2019-02-14T11:21:19.015Z,21.20
2019-02-14T11:24:20.919Z,19.93
2019-02-14T11:27:22.908Z,19.80
2019-02-14T11:30:24.816Z,18.50
2019-02-14T11:33:26.788Z,19.67
2019-02-14T11:36:28.819Z,19.60
2019-02-14T11:39:30.939Z,19.37
2019-02-14T11:42:32.967Z,17.70
2019-02-14T11:45:34.905Z,16.83
2019-02-14T11:48:36.824Z,19.73
2019-02-14T11:51:38.761Z,18.23
2019-02-14T11:54:40.619Z,19.47
2019-02-14T11:57:42.582Z,18.80
2019-02-14T12:00:44.462Z,20.47
2019-02-14T12:03:46.950Z,19.13
2019-02-14T12:06:49.030Z,18.73
2019-02-14T12:09:51.109Z,18.97
2019-02-14T12:12:53.238Z,18.57
2019-02-14T12:15:55.244Z,18.50
2019-02-14T12:18:57.160Z,20.03
2019-02-14T12:21:59.208Z,17.73
2019-02-14T12:25:01.116Z,18.27
2019-02-14T12:28:03.083Z,17.83
2019-02-14T12:31:05.049Z,19.10
2019-02-14T12:34:06.945Z,19.83
2019-02-14T12:37:09.133Z,20.00
2019-02-14T12:40:12.416Z,22.33
2019-02-14T12:43:14.506Z,20.57
2019-02-14T12:46:16.455Z,23.30
2019-02-14T12:49:18.407Z,24.23
2019-02-14T12:52:20.786Z,24.10
2019-02-14T12:55:22.795Z,22.73
2019-02-14T12:58:24.744Z,21.37
2019-02-14T13:01:26.723Z,38.63
2019-02-14T13:04:28.619Z,24.83
2019-02-14T13:07:30.597Z,27.60
2019-02-14T13:10:32.538Z,23.67
2019-02-14T13:13:34.641Z,22.17
2019-02-14T13:16:36.632Z,24.37
2019-02-14T13:19:38.630Z,28.30
2019-02-14T13:22:40.556Z,24.77
2019-02-14T13:25:42.716Z,25.63
2019-02-14T13:28:44.607Z,27.40
2019-02-14T13:31:46.602Z,26.27
2019-02-14T13:34:48.517Z,28.00
2019-02-14T13:37:51.870Z,26.37
2019-02-14T13:40:54.680Z,27.57
2019-02-14T13:43:57.037Z,26.17
2019-02-14T13:46:58.968Z,24.10
2019-02-14T13:50:00.941Z,26.07
2019-02-14T13:53:02.872Z,25.53
2019-02-14T13:56:04.846Z,24.87
2019-02-14T13:59:06.785Z,27.10
2019-02-14T14:02:08.702Z,25.20
2019-02-14T14:05:10.670Z,22.37
2019-02-14T14:08:13.903Z,24.57
2019-02-14T14:11:15.799Z,24.37
2019-02-14T14:14:17.744Z,24.00
2019-02-14T14:17:19.645Z,23.13
2019-02-14T14:20:21.545Z,23.50
2019-02-14T14:23:23.490Z,23.33
2019-02-14T14:26:25.462Z,21.53
2019-02-14T14:29:27.436Z,22.00
2019-02-14T14:32:29.848Z,22.93
2019-02-14T14:35:31.913Z,20.77
2019-02-14T14:38:34.211Z,21.10
2019-02-14T14:41:36.288Z,20.60
2019-02-14T14:44:40.016Z,21.43
2019-02-14T14:47:42.167Z,21.83
2019-02-14T14:50:44.153Z,24.33
2019-02-14T14:53:46.121Z,22.10
2019-02-14T14:56:49.474Z,22.10
2019-02-14T14:59:51.439Z,18.00
2019-02-14T15:02:53.361Z,19.27
2019-02-14T15:05:57.117Z,19.40
2019-02-14T15:09:00.079Z,19.03
2019-02-14T15:12:02.511Z,16.07
2019-02-14T15:15:06.023Z,16.90
2019-02-14T15:18:08.476Z,14.90
2019-02-14T15:21:10.559Z,16.70
2019-02-14T15:24:12.676Z,16.50
2019-02-14T15:27:15.034Z,15.70
2019-02-14T15:30:20.201Z,15.27
2019-02-14T15:33:22.222Z,60.23
2019-02-14T15:36:26.531Z,124.07
2019-02-14T15:39:28.415Z,54.50
2019-02-14T15:42:30.721Z,26.00
2019-02-14T15:45:32.914Z,24.90
2019-02-14T15:48:34.921Z,24.93
2019-02-14T15:51:37.122Z,29.20
2019-02-14T15:54:40.886Z,29.17
2019-02-14T15:57:44.768Z,27.40
2019-02-14T16:00:46.806Z,27.70
2019-02-14T16:03:48.946Z,27.50
2019-02-14T16:06:52.694Z,25.17
2019-02-14T16:10:06.626Z,24.57
2019-02-14T16:13:09.831Z,23.47
2019-02-14T16:16:12.366Z,23.87
2019-02-14T16:19:16.138Z,24.07
2019-02-14T16:22:19.829Z,24.93
2019-02-14T16:25:21.751Z,52.47
2019-02-14T16:28:25.599Z,40.33
2019-02-14T16:31:27.740Z,34.20
2019-02-14T16:34:29.702Z,30.43
2019-02-14T16:37:34.372Z,28.43
2019-02-14T16:40:39.675Z,27.87
2019-02-14T16:43:42.533Z,28.00
2019-02-14T16:46:44.443Z,30.93
2019-02-14T16:49:46.476Z,29.27
2019-02-14T16:52:49.893Z,33.97
2019-02-14T16:56:01.689Z,32.63
2019-02-14T16:58:57.122Z,29.50
2019-02-14T17:01:59.148Z,28.83
2019-02-14T17:05:01.084Z,28.00
2019-02-14T17:08:06.089Z,30.60
2019-02-14T17:11:08.223Z,30.90
2019-02-14T17:14:10.244Z,31.40
2019-02-14T17:17:12.592Z,32.93
2019-02-14T17:20:14.520Z,34.70
2019-02-14T17:23:16.440Z,33.07
2019-02-14T17:26:19.506Z,32.67
2019-02-14T17:29:22.102Z,33.33
2019-02-14T17:32:24.503Z,34.63
2019-02-14T17:35:28.511Z,37.03
2019-02-14T17:38:30.474Z,36.17
2019-02-14T17:41:38.498Z,38.53
2019-02-14T17:44:40.749Z,45.57
2019-02-14T17:47:44.204Z,47.37
2019-02-14T17:50:46.698Z,53.77
2019-02-14T17:53:48.661Z,58.30
2019-02-14T17:56:51.046Z,53.50
2019-02-14T17:59:52.983Z,52.57
2019-02-14T18:02:58.278Z,40.67
2019-02-14T18:06:00.173Z,39.00
2019-02-14T18:09:02.867Z,40.07
2019-02-14T18:12:08.907Z,39.63
2019-02-14T18:15:13.959Z,37.70
2019-02-14T18:18:17.401Z,36.60
2019-02-14T18:21:20.670Z,35.53
2019-02-14T18:24:24.393Z,36.53
2019-02-14T18:27:26.406Z,39.37
2019-02-14T18:30:32.641Z,83.53
2019-02-14T18:33:34.627Z,76.37
2019-02-14T18:36:38.380Z,52.53
2019-02-14T18:39:40.429Z,38.53
2019-02-14T18:42:46.373Z,45.30
2019-02-14T18:45:48.550Z,44.17
2019-02-14T18:48:50.706Z,46.30
2019-02-14T18:51:52.690Z,35.30
2019-02-14T18:54:56.746Z,38.87
2019-02-14T18:57:58.727Z,35.10
2019-02-14T19:01:00.649Z,34.93
2019-02-14T19:04:05.515Z,36.10
2019-02-14T19:07:08.246Z,36.33
2019-02-14T19:10:15.889Z,38.47
2019-02-14T19:13:19.078Z,37.70
2019-02-14T19:16:22.418Z,37.37
2019-02-14T19:19:24.394Z,45.37
2019-02-14T19:22:26.266Z,37.33
2019-02-14T19:25:29.713Z,53.87
2019-02-14T19:28:31.741Z,60.37
2019-02-14T19:31:35.044Z,62.30
2019-02-14T19:34:36.928Z,65.33
2019-02-14T19:37:41.650Z,64.17
2019-02-14T19:40:45.325Z,60.90
2019-02-14T19:43:49.155Z,56.63
2019-02-14T19:46:53.020Z,55.83
2019-02-14T19:49:55.082Z,57.90
2019-02-14T19:53:00.475Z,53.63
2019-02-14T19:56:02.427Z,50.13
2019-02-14T19:59:05.780Z,46.47
2019-02-14T20:02:10.426Z,45.37
2019-02-14T20:05:13.455Z,38.07
2019-02-14T20:08:15.335Z,56.63
2019-02-14T20:11:19.813Z,64.57
2019-02-14T20:14:24.158Z,55.17
2019-02-14T20:17:26.944Z,60.27
2019-02-14T20:20:30.135Z,48.40
2019-02-14T20:23:33.954Z,41.10
2019-02-14T20:26:38.887Z,43.00
2019-02-14T20:29:42.746Z,43.00
2019-02-14T20:32:44.974Z,43.37
2019-02-14T20:35:46.929Z,44.10
2019-02-14T20:38:50.263Z,42.70
2019-02-14T20:41:52.521Z,43.27
2019-02-14T20:44:56.959Z,40.47
2019-02-14T20:47:58.941Z,42.10
2019-02-14T20:51:03.001Z,41.70
2019-02-14T20:54:05.522Z,42.40
2019-02-14T20:57:07.562Z,40.50
2019-02-14T21:00:29.640Z,41.80
2019-02-14T21:03:31.882Z,44.00
2019-02-14T21:06:33.815Z,44.73
2019-02-14T21:09:38.237Z,49.47
2019-02-14T21:12:46.920Z,49.43
2019-02-14T21:15:52.957Z,50.60
2019-02-14T21:18:56.009Z,56.07
2019-02-14T21:22:01.686Z,65.10
2019-02-14T21:25:05.372Z,77.50
2019-02-14T21:28:07.315Z,69.23
2019-02-14T21:31:09.334Z,62.67
2019-02-14T21:34:11.280Z,58.40
2019-02-14T21:37:18.201Z,49.93
2019-02-14T21:40:22.145Z,44.20
2019-02-14T21:43:27.722Z,43.87
2019-02-14T21:46:29.846Z,39.93
2019-02-14T21:49:31.794Z,41.23
2019-02-14T21:52:33.755Z,41.87
2019-02-14T21:55:35.713Z,44.87
2019-02-14T21:58:37.652Z,49.53
2019-02-14T22:01:39.609Z,51.40
2019-02-14T22:04:41.649Z,54.03
2019-02-14T22:07:43.530Z,53.23
2019-02-14T22:10:46.522Z,56.17
2019-02-14T22:13:48.412Z,52.50
2019-02-14T22:16:50.657Z,51.47
2019-02-14T22:19:52.564Z,51.60
2019-02-14T22:22:54.568Z,56.50
2019-02-14T22:25:56.708Z,59.47
2019-02-14T22:28:58.662Z,60.93
2019-02-14T22:32:00.591Z,57.67
2019-02-14T22:35:02.500Z,56.20
2019-02-14T22:38:04.404Z,57.53
2019-02-14T22:41:06.309Z,56.63
2019-02-14T22:44:08.259Z,59.87
2019-02-14T22:47:10.424Z,61.07
2019-02-14T22:50:12.871Z,62.50
2019-02-14T22:53:14.887Z,60.47
2019-02-14T22:56:16.819Z,61.97
2019-02-14T22:59:18.768Z,62.87
2019-02-14T23:02:20.627Z,66.80
2019-02-14T23:05:22.545Z,72.87
2019-02-14T23:08:24.458Z,70.73
2019-02-14T23:11:26.379Z,70.57
2019-02-14T23:14:28.298Z,66.73
2019-02-14T23:17:30.340Z,61.47
2019-02-14T23:20:32.207Z,55.60
2019-02-14T23:23:34.238Z,55.73
2019-02-14T23:26:36.728Z,50.80
2019-02-14T23:29:38.653Z,50.97
2019-02-14T23:32:40.585Z,49.83
2019-02-14T23:35:42.560Z,53.47
2019-02-14T23:38:44.432Z,52.20
2019-02-14T23:41:46.375Z,50.80
2019-02-14T23:44:48.287Z,50.23
2019-02-14T23:47:50.428Z,48.63
2019-02-14T23:50:52.316Z,49.87
2019-02-14T23:53:54.271Z,48.97
2019-02-14T23:56:56.148Z,48.17
2019-02-14T23:59:58.071Z,45.07
